createdAt,value
2023-04-10T00:02:09.773Z,6.45
2023-04-10T00:04:39.676Z,9.80
2023-04-10T00:07:09.467Z,6.97
2023-04-10T00:09:39.070Z,10.35
2023-04-10T00:12:08.870Z,5.07
2023-04-10T00:14:38.622Z,7.07
2023-04-10T00:17:08.438Z,5.85
2023-04-10T00:19:38.143Z,5.00
2023-04-10T00:22:07.842Z,7.32
2023-04-10T00:24:37.516Z,3.85
2023-04-10T00:27:07.274Z,6.13
2023-04-10T00:29:37.073Z,5.20
2023-04-10T00:32:07.021Z,5.22
2023-04-10T00:34:36.999Z,2.55
2023-04-10T00:37:06.713Z,5.90
2023-04-10T00:39:36.340Z,5.57
2023-04-10T00:42:10.828Z,1.52
2023-04-10T00:44:40.636Z,2.47
2023-04-10T00:47:10.385Z,1.60
2023-04-10T00:49:40.087Z,2.92
2023-04-10T00:52:10.392Z,1.60
2023-04-10T00:54:40.049Z,3.00
2023-04-10T00:57:09.715Z,2.70
2023-04-10T00:59:39.529Z,3.33
2023-04-10T01:02:09.316Z,7.47
2023-04-10T01:04:39.665Z,3.83
2023-04-10T01:07:20.421Z,2.08
2023-04-10T01:10:22.666Z,1.42
2023-04-10T01:13:07.227Z,3.60
2023-04-10T01:16:02.234Z,1.65
2023-04-10T01:18:39.749Z,2.00
2023-04-10T01:21:10.883Z,2.88
2023-04-10T01:23:56.212Z,2.30
2023-04-10T01:27:03.242Z,3.47
2023-04-10T01:32:15.131Z,3.22
2023-04-10T01:34:47.406Z,3.67
2023-04-10T01:37:21.519Z,1.48
2023-04-10T01:39:55.916Z,1.13
2023-04-10T01:43:09.088Z,3.42
2023-04-10T01:45:41.292Z,2.20
2023-04-10T01:48:11.020Z,1.40
2023-04-10T01:50:41.380Z,1.85
2023-04-10T01:53:10.401Z,1.35
2023-04-10T01:55:42.863Z,1.60
2023-04-10T01:58:12.794Z,3.22
2023-04-10T02:00:45.756Z,2.78
2023-04-10T02:03:15.831Z,3.45
2023-04-10T02:06:04.434Z,2.70
2023-04-10T02:08:38.474Z,3.50
2023-04-10T02:11:49.116Z,1.60
2023-04-10T02:14:19.716Z,3.50
2023-04-10T02:16:49.843Z,5.22
2023-04-10T02:19:19.491Z,1.35
2023-04-10T02:21:49.428Z,1.90
2023-04-10T02:24:19.129Z,1.85
2023-04-10T02:26:53.479Z,1.88
2023-04-10T02:29:23.307Z,1.10
2023-04-10T02:31:53.006Z,3.03
2023-04-10T02:34:22.848Z,1.85
2023-04-10T02:36:52.499Z,1.45
2023-04-10T02:39:22.164Z,5.05
2023-04-10T02:41:52.038Z,1.92
2023-04-10T02:44:22.176Z,1.33
2023-04-10T02:46:51.951Z,1.75
2023-04-10T02:49:21.980Z,3.60
2023-04-10T02:51:54.776Z,3.60
2023-04-10T02:54:24.480Z,3.08
2023-04-10T02:56:56.230Z,1.52
2023-04-10T02:59:26.018Z,3.50
2023-04-10T03:01:55.790Z,1.00
2023-04-10T03:04:25.767Z,2.35
2023-04-10T03:06:56.117Z,1.30
2023-04-10T03:09:25.834Z,1.48
2023-04-10T03:11:55.617Z,2.10
2023-04-10T03:14:25.971Z,2.10
2023-04-10T03:16:55.665Z,5.65
2023-04-10T03:19:25.474Z,5.13
2023-04-10T03:21:55.278Z,7.88
2023-04-10T03:24:25.066Z,3.67
2023-04-10T03:27:01.870Z,5.80
2023-04-10T03:29:31.810Z,6.53
2023-04-10T03:32:01.565Z,9.45
2023-04-10T03:34:31.401Z,13.57
2023-04-10T03:37:01.100Z,13.25
2023-04-10T03:39:31.343Z,17.15
2023-04-10T03:42:01.112Z,20.25
2023-04-10T03:44:30.752Z,23.25
2023-04-10T03:47:00.606Z,22.25
2023-04-10T03:49:30.275Z,26.83
2023-04-10T03:51:59.978Z,29.38
2023-04-10T03:54:29.719Z,26.33
2023-04-10T03:56:59.505Z,29.13
2023-04-10T03:59:37.732Z,30.85
2023-04-10T04:02:12.447Z,27.80
2023-04-10T04:04:42.706Z,29.00
2023-04-10T04:07:16.692Z,27.90
2023-04-10T04:09:46.574Z,35.05
2023-04-10T04:12:16.375Z,26.13
2023-04-10T04:14:46.737Z,25.20
2023-04-10T04:17:19.516Z,29.70
2023-04-10T04:19:55.187Z,27.30
2023-04-10T04:22:24.883Z,25.75
2023-04-10T04:24:54.635Z,23.58
2023-04-10T04:27:24.852Z,24.02
2023-04-10T04:29:54.527Z,18.50
2023-04-10T04:32:24.222Z,22.23
2023-04-10T04:34:53.948Z,21.33
2023-04-10T04:37:26.292Z,25.13
2023-04-10T04:39:56.006Z,21.42
2023-04-10T04:42:25.789Z,19.75
2023-04-10T04:44:55.526Z,24.75
2023-04-10T04:47:25.995Z,21.45
2023-04-10T04:49:55.696Z,14.80
2023-04-10T04:52:25.391Z,17.80
2023-04-10T04:54:55.169Z,16.55
2023-04-10T04:57:24.762Z,13.23
2023-04-10T04:59:54.690Z,13.80
2023-04-10T05:02:24.564Z,16.13
2023-04-10T05:04:54.222Z,11.70
2023-04-10T05:07:23.918Z,17.58
2023-04-10T05:09:56.705Z,167.02
2023-04-10T05:12:26.410Z,183.50
2023-04-10T05:14:56.068Z,114.03
2023-04-10T05:17:25.872Z,88.85
2023-04-10T05:19:55.617Z,75.97
2023-04-10T05:22:25.356Z,63.83
2023-04-10T05:24:56.705Z,52.67
2023-04-10T05:27:27.080Z,37.33
2023-04-10T05:29:56.895Z,35.00
2023-04-10T05:32:26.652Z,35.17
2023-04-10T05:34:56.408Z,33.15
2023-04-10T05:37:26.088Z,32.63
2023-04-10T05:39:55.779Z,29.33
2023-04-10T05:42:25.386Z,30.52
2023-04-10T05:44:55.313Z,26.60
2023-04-10T05:47:25.036Z,21.42
2023-04-10T05:49:54.730Z,19.55
2023-04-10T05:52:24.418Z,17.35
2023-04-10T05:54:54.132Z,19.92
2023-04-10T05:57:23.841Z,17.13
2023-04-10T05:59:53.569Z,25.13
2023-04-10T06:02:23.511Z,25.10
2023-04-10T06:04:53.985Z,15.43
2023-04-10T06:07:23.851Z,13.60
2023-04-10T06:09:53.765Z,18.55
2023-04-10T06:12:23.522Z,12.05
2023-04-10T06:14:53.286Z,15.95
2023-04-10T06:17:27.424Z,12.35
2023-04-10T06:19:58.326Z,12.05
2023-04-10T06:22:28.460Z,10.60
2023-04-10T06:24:58.144Z,9.38
2023-04-10T06:27:27.817Z,11.98
2023-04-10T06:29:57.524Z,11.15
2023-04-10T06:32:27.478Z,8.75
2023-04-10T06:34:57.542Z,10.60
2023-04-10T06:37:34.363Z,9.45
2023-04-10T06:40:15.005Z,9.63
2023-04-10T06:42:44.748Z,10.73
2023-04-10T06:45:14.471Z,9.70
2023-04-10T06:47:44.282Z,8.15
2023-04-10T06:50:14.003Z,11.07
2023-04-10T06:52:43.665Z,11.00
2023-04-10T06:55:14.510Z,9.07
2023-04-10T06:57:44.972Z,9.63
2023-04-10T07:00:15.145Z,8.23
2023-04-10T07:02:44.818Z,10.80
2023-04-10T07:05:14.568Z,9.20
2023-04-10T07:07:44.540Z,11.32
2023-04-10T07:10:14.964Z,10.18
2023-04-10T07:12:45.225Z,9.13
2023-04-10T07:15:14.964Z,10.55
2023-04-10T07:17:45.144Z,9.10
2023-04-10T07:20:14.959Z,5.88
2023-04-10T07:22:44.618Z,7.60
2023-04-10T07:25:15.817Z,6.75
2023-04-10T07:27:45.577Z,6.88
2023-04-10T07:30:15.466Z,7.25
2023-04-10T07:32:45.262Z,7.85
2023-04-10T07:35:15.021Z,6.55
2023-04-10T07:37:45.758Z,6.32
2023-04-10T07:40:15.538Z,3.90
2023-04-10T07:42:45.186Z,4.82
2023-04-10T07:45:14.978Z,5.55
2023-04-10T07:47:44.637Z,4.18
2023-04-10T07:50:14.311Z,5.53
2023-04-10T07:52:43.961Z,5.18
2023-04-10T07:55:13.667Z,3.97
2023-04-10T07:57:43.487Z,4.15
2023-04-10T08:00:13.843Z,3.25
2023-04-10T08:02:44.043Z,4.82
2023-04-10T08:05:13.783Z,4.32
2023-04-10T08:07:43.585Z,3.90
2023-04-10T08:10:13.558Z,2.33
2023-04-10T08:12:43.301Z,4.72
2023-04-10T08:15:13.341Z,3.47
2023-04-10T08:17:42.987Z,5.25
2023-04-10T08:20:14.485Z,5.70
2023-04-10T08:22:44.213Z,4.03
2023-04-10T08:25:13.904Z,2.95
2023-04-10T08:27:43.829Z,3.22
2023-04-10T08:30:13.808Z,4.90
2023-04-10T08:32:43.580Z,2.58
2023-04-10T08:35:13.262Z,3.35
2023-04-10T08:37:43.158Z,4.03
2023-04-10T08:40:17.201Z,3.47
2023-04-10T08:42:46.850Z,4.97
2023-04-10T08:45:16.445Z,4.95
2023-04-10T08:47:46.112Z,3.75
2023-04-10T08:50:15.969Z,3.28
2023-04-10T08:52:46.298Z,3.17
2023-04-10T08:55:17.270Z,4.18
2023-04-10T08:57:54.286Z,3.55
2023-04-10T09:00:33.072Z,3.42
2023-04-10T09:03:06.491Z,2.47
2023-04-10T09:05:37.466Z,4.10
2023-04-10T09:08:08.988Z,4.35
2023-04-10T09:10:38.620Z,3.35
2023-04-10T09:13:08.290Z,1.98
2023-04-10T09:16:00.339Z,2.65
2023-04-10T09:18:52.245Z,3.33
2023-04-10T09:21:22.721Z,2.72
2023-04-10T09:23:55.783Z,4.00
2023-04-10T09:26:35.461Z,3.25
2023-04-10T09:29:12.534Z,1.90
2023-04-10T09:31:43.455Z,4.00
2023-04-10T09:34:17.647Z,4.00
2023-04-10T09:36:57.608Z,2.10
2023-04-10T09:39:54.068Z,3.85
2023-04-10T09:42:34.118Z,4.45
2023-04-10T09:45:07.256Z,3.00
2023-04-10T09:47:37.753Z,4.10
2023-04-10T09:50:07.771Z,3.40
2023-04-10T09:52:39.749Z,4.28
2023-04-10T09:55:10.241Z,1.77
2023-04-10T09:57:39.906Z,3.47
2023-04-10T10:00:10.936Z,3.80
2023-04-10T10:02:40.883Z,4.93
2023-04-10T10:05:11.785Z,2.53
2023-04-10T10:07:41.592Z,2.50
2023-04-10T10:10:11.275Z,3.53
2023-04-10T10:12:54.218Z,2.13
2023-04-10T10:16:02.096Z,3.55
2023-04-10T10:18:36.982Z,2.13
2023-04-10T10:21:07.602Z,3.92
2023-04-10T10:23:37.254Z,4.93
2023-04-10T10:26:08.404Z,3.10
2023-04-10T10:28:38.929Z,4.05
2023-04-10T10:31:08.830Z,2.25
2023-04-10T10:33:41.821Z,3.28
2023-04-10T10:36:12.977Z,2.75
2023-04-10T10:38:50.439Z,3.22
2023-04-10T10:41:43.355Z,3.70
2023-04-10T10:44:29.618Z,3.92
2023-04-10T10:47:08.688Z,4.68
2023-04-10T10:50:03.063Z,4.40
2023-04-10T10:52:45.863Z,2.33
2023-04-10T10:55:27.480Z,3.13
2023-04-10T10:57:57.990Z,2.67
2023-04-10T11:00:31.074Z,4.45
2023-04-10T11:03:13.156Z,3.25
2023-04-10T11:05:59.990Z,4.10
2023-04-10T11:08:36.769Z,5.80
2023-04-10T11:11:17.566Z,3.45
2023-04-10T11:14:02.229Z,2.60
2023-04-10T11:16:37.218Z,3.20
2023-04-10T11:19:13.865Z,3.47
2023-04-10T11:22:03.482Z,3.10
2023-04-10T11:24:53.265Z,3.17
2023-04-10T11:27:42.143Z,3.30
2023-04-10T11:30:36.980Z,3.72
2023-04-10T11:33:07.063Z,3.33
2023-04-10T11:35:36.969Z,4.28
2023-04-10T11:38:13.284Z,3.72
2023-04-10T11:41:03.764Z,3.78
2023-04-10T11:43:33.917Z,4.38
2023-04-10T11:46:05.314Z,4.00
2023-04-10T11:48:35.098Z,5.78
2023-04-10T11:51:12.446Z,7.15
2023-04-10T11:53:42.569Z,4.93
2023-04-10T11:56:38.377Z,6.25
2023-04-10T11:59:17.095Z,5.75
2023-04-10T12:01:46.894Z,5.70
2023-04-10T12:04:20.748Z,4.57
2023-04-10T12:06:54.350Z,7.60
2023-04-10T12:09:24.153Z,6.75
2023-04-10T12:11:58.396Z,6.07
2023-04-10T12:14:39.833Z,5.53
2023-04-10T12:17:11.950Z,4.28
2023-04-10T12:19:41.690Z,5.78
2023-04-10T12:22:13.514Z,4.97
2023-04-10T12:24:47.821Z,6.22
2023-04-10T12:27:24.175Z,6.75
2023-04-10T12:29:55.237Z,7.72
2023-04-10T12:32:25.310Z,5.47
2023-04-10T12:34:59.168Z,8.27
2023-04-10T12:37:49.084Z,5.70
2023-04-10T12:40:18.940Z,6.68
2023-04-10T12:42:48.936Z,5.93
2023-04-10T12:45:18.551Z,6.53
2023-04-10T12:47:49.750Z,6.07
2023-04-10T12:50:20.560Z,6.22
2023-04-10T12:53:11.653Z,8.98
2023-04-10T12:55:41.569Z,8.35
2023-04-10T12:58:24.072Z,8.13
2023-04-10T13:00:53.715Z,7.50
2023-04-10T13:03:23.519Z,7.03
2023-04-10T13:05:54.956Z,9.13
2023-04-10T13:08:24.828Z,7.13
2023-04-10T13:10:54.577Z,7.82
2023-04-10T13:13:24.203Z,7.70
2023-04-10T13:15:54.419Z,6.80
2023-04-10T13:18:24.097Z,9.75
2023-04-10T13:20:53.831Z,9.20
2023-04-10T13:23:23.477Z,9.05
2023-04-10T13:25:53.866Z,9.63
2023-04-10T13:28:23.557Z,8.73
2023-04-10T13:30:53.779Z,10.70
2023-04-10T13:33:23.779Z,8.77
2023-04-10T13:35:54.938Z,9.23
2023-04-10T13:38:24.572Z,8.98
2023-04-10T13:40:55.757Z,11.32
2023-04-10T13:43:25.366Z,9.50
2023-04-10T13:45:54.969Z,8.55
2023-04-10T13:48:33.580Z,9.85
2023-04-10T13:51:10.200Z,8.40
2023-04-10T13:53:39.925Z,8.95
2023-04-10T13:56:10.230Z,9.93
2023-04-10T13:58:39.862Z,9.90
2023-04-10T14:01:09.844Z,10.52
2023-04-10T14:03:39.582Z,9.60
2023-04-10T14:06:09.687Z,9.65
2023-04-10T14:08:39.409Z,8.80
2023-04-10T14:11:09.426Z,9.77
2023-04-10T14:13:39.115Z,9.23
2023-04-10T14:16:09.361Z,10.52
2023-04-10T14:18:39.304Z,11.15
2023-04-10T14:21:09.395Z,10.35
2023-04-10T14:23:39.106Z,9.30
2023-04-10T14:26:08.959Z,11.48
2023-04-10T14:28:38.681Z,12.70
2023-04-10T14:31:09.528Z,13.98
2023-04-10T14:33:39.148Z,14.55
2023-04-10T14:36:09.397Z,11.63
2023-04-10T14:38:39.083Z,11.68
2023-04-10T14:41:09.090Z,11.60
2023-04-10T14:43:39.792Z,9.73
2023-04-10T14:46:09.646Z,10.40
2023-04-10T14:48:39.374Z,12.23
2023-04-10T14:51:14.695Z,10.73
2023-04-10T14:53:44.493Z,9.73
2023-04-10T14:56:17.593Z,12.77
2023-04-10T14:58:49.470Z,12.07
2023-04-10T15:01:19.197Z,11.55
2023-04-10T15:03:52.097Z,10.20
2023-04-10T15:06:22.069Z,11.85
2023-04-10T15:08:51.854Z,9.75
2023-04-10T15:11:21.500Z,10.35
2023-04-10T15:13:53.997Z,10.52
2023-04-10T15:16:24.033Z,10.88
2023-04-10T15:18:53.658Z,9.98
2023-04-10T15:21:23.302Z,9.88
2023-04-10T15:23:56.842Z,10.95
2023-04-10T15:26:26.588Z,11.45
2023-04-10T15:28:56.379Z,11.90
2023-04-10T15:31:26.037Z,10.77
2023-04-10T15:33:55.887Z,10.98
2023-04-10T15:36:25.633Z,12.27
2023-04-10T15:38:55.342Z,11.23
2023-04-10T15:41:25.135Z,11.50
2023-04-10T15:43:55.085Z,10.00
2023-04-10T15:46:24.975Z,10.98
2023-04-10T15:48:54.682Z,9.43
2023-04-10T15:51:24.413Z,9.43
2023-04-10T15:53:54.462Z,10.13
2023-04-10T15:56:24.553Z,10.65
2023-04-10T15:58:54.240Z,9.27
2023-04-10T16:01:23.997Z,10.88
2023-04-10T16:03:54.126Z,11.13
2023-04-10T16:06:27.439Z,10.55
2023-04-10T16:08:57.064Z,10.95
2023-04-10T16:11:27.099Z,9.65
2023-04-10T16:13:57.124Z,9.05
2023-04-10T16:16:27.709Z,10.20
2023-04-10T16:18:59.730Z,10.93
2023-04-10T16:21:30.224Z,12.40
2023-04-10T16:24:02.384Z,12.95
2023-04-10T16:26:32.098Z,10.18
2023-04-10T16:29:01.971Z,10.40
2023-04-10T16:31:31.646Z,10.68
2023-04-10T16:34:02.792Z,10.85
2023-04-10T16:36:32.978Z,10.68
2023-04-10T16:39:02.602Z,9.82
2023-04-10T16:41:32.301Z,10.35
2023-04-10T16:44:02.268Z,9.57
2023-04-10T16:46:32.647Z,9.13
2023-04-10T16:49:03.155Z,12.80
2023-04-10T16:51:32.763Z,10.82
2023-04-10T16:54:02.545Z,9.77
2023-04-10T16:56:34.224Z,10.15
2023-04-10T16:59:06.027Z,10.25
2023-04-10T17:01:41.226Z,9.88
2023-04-10T17:04:11.134Z,9.70
2023-04-10T17:06:40.992Z,8.82
2023-04-10T17:09:10.608Z,8.90
2023-04-10T17:11:43.643Z,9.50
2023-04-10T17:14:14.866Z,9.48
2023-04-10T17:16:44.570Z,9.40
2023-04-10T17:19:14.547Z,10.02
2023-04-10T17:21:44.177Z,7.95
2023-04-10T17:24:13.943Z,10.40
2023-04-10T17:26:43.674Z,10.10
2023-04-10T17:29:13.328Z,10.07
2023-04-10T17:31:43.114Z,9.27
2023-04-10T17:34:12.788Z,8.45
2023-04-10T17:36:43.844Z,10.48
2023-04-10T17:39:13.525Z,8.65
2023-04-10T17:41:43.169Z,10.23
2023-04-10T17:44:12.956Z,10.10
2023-04-10T17:46:42.655Z,10.73
2023-04-10T17:49:12.332Z,11.60
2023-04-10T17:51:43.383Z,10.43
2023-04-10T17:54:13.182Z,8.90
2023-04-10T17:56:44.266Z,11.77
2023-04-10T17:59:13.879Z,9.98
2023-04-10T18:01:43.597Z,11.18
2023-04-10T18:04:13.437Z,10.52
2023-04-10T18:06:43.078Z,8.70
2023-04-10T18:09:13.076Z,10.38
2023-04-10T18:11:42.720Z,9.73
2023-04-10T18:14:12.637Z,9.07
2023-04-10T18:16:42.368Z,10.60
2023-04-10T18:19:12.028Z,9.18
2023-04-10T18:21:43.508Z,9.27
2023-04-10T18:24:13.640Z,9.95
2023-04-10T18:26:43.345Z,10.15
2023-04-10T18:29:13.030Z,10.05
2023-04-10T18:31:42.633Z,9.57
2023-04-10T18:34:12.513Z,11.50
2023-04-10T18:36:42.257Z,9.30
2023-04-10T18:39:12.365Z,9.65
2023-04-10T18:41:42.111Z,9.65
2023-04-10T18:44:12.084Z,10.05
2023-04-10T18:46:46.186Z,10.02
2023-04-10T18:49:18.201Z,8.57
2023-04-10T18:51:47.881Z,10.80
2023-04-10T18:54:17.572Z,8.57
2023-04-10T18:56:47.289Z,8.90
2023-04-10T18:59:16.928Z,9.40
2023-04-10T19:01:46.793Z,9.32
2023-04-10T19:04:17.177Z,9.50
2023-04-10T19:06:47.899Z,10.63
2023-04-10T19:09:18.007Z,8.30
2023-04-10T19:11:47.836Z,8.90
2023-04-10T19:14:17.588Z,8.85
2023-04-10T19:16:47.264Z,10.30
2023-04-10T19:19:16.971Z,9.13
2023-04-10T19:21:46.777Z,9.40
2023-04-10T19:24:16.461Z,8.20
2023-04-10T19:26:46.123Z,9.10
2023-04-10T19:29:15.793Z,9.27
2023-04-10T19:31:45.644Z,6.82
2023-04-10T19:34:15.430Z,8.57
2023-04-10T19:36:45.128Z,8.43
2023-04-10T19:39:14.738Z,9.45
2023-04-10T19:41:45.132Z,9.48
2023-04-10T19:44:14.845Z,8.52
2023-04-10T19:46:44.517Z,7.93
2023-04-10T19:49:14.707Z,8.65
2023-04-10T19:51:44.418Z,8.55
2023-04-10T19:54:14.081Z,8.57
2023-04-10T19:56:44.105Z,9.00
2023-04-10T19:59:13.719Z,9.38
2023-04-10T20:01:43.507Z,8.90
2023-04-10T20:04:13.487Z,6.97
2023-04-10T20:06:44.634Z,7.30
2023-04-10T20:09:14.308Z,6.43
2023-04-10T20:11:44.033Z,6.63
2023-04-10T20:14:13.716Z,5.43
2023-04-10T20:16:43.357Z,8.43
2023-04-10T20:19:13.028Z,4.35
2023-04-10T20:21:42.667Z,6.93
2023-04-10T20:24:12.345Z,5.15
2023-04-10T20:26:42.096Z,5.25
2023-04-10T20:29:11.765Z,6.80
2023-04-10T20:31:41.538Z,7.50
2023-04-10T20:34:11.871Z,4.45
2023-04-10T20:36:41.586Z,5.35
2023-04-10T20:39:14.062Z,3.55
2023-04-10T20:41:43.717Z,4.43
2023-04-10T20:44:13.532Z,3.30
2023-04-10T20:46:43.176Z,2.60
2023-04-10T20:49:17.213Z,3.35
2023-04-10T20:51:46.846Z,5.40
2023-04-10T20:54:16.522Z,4.75
2023-04-10T20:56:46.135Z,3.38
2023-04-10T20:59:15.828Z,2.78
2023-04-10T21:01:45.588Z,2.20
2023-04-10T21:04:15.346Z,2.80
2023-04-10T21:06:45.013Z,3.72
2023-04-10T21:09:14.665Z,3.78
2023-04-10T21:11:44.308Z,2.00
2023-04-10T21:14:14.847Z,3.92
2023-04-10T21:16:45.259Z,2.78
2023-04-10T21:19:15.234Z,2.90
2023-04-10T21:21:45.007Z,2.45
2023-04-10T21:24:14.630Z,2.10
2023-04-10T21:26:44.319Z,3.13
2023-04-10T21:29:13.989Z,4.55
2023-04-10T21:31:43.643Z,2.97
2023-04-10T21:34:13.407Z,3.47
2023-04-10T21:36:43.066Z,3.80
2023-04-10T21:39:12.819Z,3.17
2023-04-10T21:41:42.485Z,1.77
2023-04-10T21:44:12.226Z,2.65
2023-04-10T21:46:41.998Z,3.15
2023-04-10T21:49:11.984Z,3.55
2023-04-10T21:51:44.487Z,2.35
2023-04-10T21:54:14.310Z,2.08
2023-04-10T21:56:47.489Z,2.90
2023-04-10T21:59:17.162Z,3.22
2023-04-10T22:01:47.073Z,2.58
2023-04-10T22:04:17.149Z,2.83
2023-04-10T22:06:46.890Z,3.55
2023-04-10T22:09:16.624Z,2.45
2023-04-10T22:11:46.248Z,2.70
2023-04-10T22:14:18.752Z,1.75
2023-04-10T22:16:49.859Z,1.85
2023-04-10T22:19:19.548Z,3.38
2023-04-10T22:21:49.253Z,3.30
2023-04-10T22:24:18.886Z,1.48
2023-04-10T22:26:48.673Z,2.00
2023-04-10T22:29:18.489Z,1.52
2023-04-10T22:31:48.244Z,1.70
2023-04-10T22:34:17.907Z,3.00
2023-04-10T22:36:47.642Z,3.05
2023-04-10T22:39:17.445Z,3.13
2023-04-10T22:41:47.269Z,3.63
2023-04-10T22:44:17.068Z,1.63
2023-04-10T22:46:49.779Z,3.60
2023-04-10T22:49:19.470Z,2.08
2023-04-10T22:51:49.158Z,2.03
2023-04-10T22:54:22.294Z,1.75
2023-04-10T22:56:52.832Z,1.88
2023-04-10T22:59:22.462Z,1.52
2023-04-10T23:01:52.335Z,2.92
2023-04-10T23:04:22.327Z,8.27
2023-04-10T23:06:52.257Z,2.38
2023-04-10T23:09:22.321Z,2.00
2023-04-10T23:11:51.939Z,1.73
2023-04-10T23:14:21.847Z,3.45
2023-04-10T23:17:00.474Z,4.18
2023-04-10T23:22:12.642Z,1.88
2023-04-10T23:24:42.299Z,2.70
2023-04-10T23:27:14.281Z,1.98
2023-04-10T23:29:46.116Z,1.75
2023-04-10T23:32:26.711Z,1.40
2023-04-10T23:35:00.461Z,1.75
2023-04-10T23:37:30.745Z,1.35
2023-04-10T23:40:03.449Z,1.02
2023-04-10T23:42:33.135Z,1.20
2023-04-10T23:45:05.376Z,1.20
2023-04-10T23:47:41.674Z,1.25
2023-04-10T23:50:13.204Z,1.27
2023-04-10T23:52:42.945Z,1.13
2023-04-10T23:55:12.818Z,1.15
2023-04-10T23:57:43.747Z,0.95
